Flight Track Log - Related Links

Times and Time Zones

All times are in EDT time to prevent confusion due to time zone crossing. See the UAL1605 flight status page for this flight to view local times or setup timezone preferences in your user account.

Time Position Orientation Groundspeed Altitude Reporting Facility
EDT Latitude Longitude Course Direction KTS MPH feet Rate Location/Type
Fri 05:36:15 AM 18.4340 -65.9960 90° East  Level FlightAware ADS-B
Fri 05:36:50 AM 18.4390 -65.9700 79° East 173 199 1,500 2,204 Climbing FlightAware ADS-B
Fri 05:37:04 AM 18.4480 -65.9650 28° Northeast 187 215 1,800 1,862 Climbing FlightAware ADS-B
Fri 05:37:19 AM 18.4640 -65.9630 North 205 236 2,400 2,233 Climbing FlightAware ADS-B
Fri 05:37:47 AM 18.4930 -65.9620 North 226 260 3,400 1,929 Climbing FlightAware ADS-B
Fri 05:38:15 AM 18.5240 -65.9600 North 256 295 4,200 2,250 Climbing FlightAware ADS-B
Fri 05:38:43 AM 18.5600 -65.9610 358° North 274 315 5,500 2,727 Climbing FlightAware ADS-B
Fri 05:38:59 AM 18.5800 -65.9620 357° North 278 320 6,200 3,000 Climbing FlightAware ADS-B
Fri 05:39:27 AM 18.6160 -65.9640 357° North 279 321 7,700 3,000 Climbing FlightAware ADS-B
Fri 05:39:55 AM 18.6530 -65.9650 359° North 280 322 9,000 2,613 Climbing FlightAware ADS-B
Fri 05:40:29 AM 18.6980 -65.9670 358° North 291 335 10,400 1,286 Climbing FlightAware ADS-B
Fri 05:41:19 AM 18.7320 -65.9680 358° North 319 367 10,800 1,674 Climbing FlightAware ADS-B
Fri 05:41:55 AM 18.8290 -65.9720 358° North 352 405 12,800 2,780 Climbing FlightAware ADS-B
Fri 05:42:41 AM 18.9070 -65.9750 358° North 364 419 14,600 2,233 Climbing FlightAware ADS-B
Fri 05:43:21 AM 18.9760 -65.9780 358° North 374 430 16,000 1,884 Climbing FlightAware ADS-B
Fri 05:44:07 AM 19.0570 -65.9790 359° North 390 449 17,300 1,636 Climbing FlightAware ADS-B
Fri 05:44:49 AM 19.1360 -65.9810 359° North 408 470 18,400 1,658 Climbing FlightAware ADS-B
Fri 05:45:23 AM 19.2000 -65.9830 358° North 415 478 19,400 1,786 Climbing FlightAware ADS-B
Fri 05:46:13 AM 19.2970 -65.9860 358° North 425 489 20,900 1,733 Climbing FlightAware ADS-B
Fri 05:46:53 AM 19.3770 -65.9880 359° North 435 501 22,000 1,714 Climbing FlightAware ADS-B
Fri 05:47:37 AM 19.4670 -65.9900 359° North 440 506 23,300 1,663 Climbing FlightAware ADS-B
Fri 05:48:16 AM 19.5450 -65.9930 358° North 445 512 24,300 1,425 Climbing FlightAware ADS-B
Fri 05:48:57 AM 19.6320 -65.9950 359° North 452 520 25,200 907 Climbing FlightAware ADS-B
Fri 05:49:42 AM 19.7180 -65.9980 358° North 455 524 25,600 1,286 Climbing FlightAware ADS-B
Fri 05:50:49 AM 19.8680 -66.0010 359° North 472 543 27,600 1,676 Climbing FlightAware ADS-B
Fri 05:51:33 AM 19.9710 -66.0040 358° North 473 544 28,700 1,432 Climbing FlightAware ADS-B
Fri 05:52:17 AM 20.0670 -66.0070 358° North 472 543 29,700 1,389 Climbing FlightAware ADS-B
Fri 05:53:08 AM 20.1760 -66.0100 359° North 469 540 30,900 1,313 Climbing FlightAware ADS-B
Fri 05:53:53 AM 20.2760 -66.0130 358° North 468 539 31,800 1,079 Climbing FlightAware ADS-B
Fri 05:54:37 AM 20.3710 -66.0150 359° North 470 541 32,500 1,071 Climbing FlightAware ADS-B
Fri 05:55:45 AM 20.5210 -66.0190 359° North 468 539 33,800 1,018 Climbing FlightAware ADS-B
Fri 05:56:29 AM 20.6150 -66.0220 358° North 468 539 34,400 857 Climbing FlightAware ADS-B
Fri 05:57:09 AM 20.7010 -66.0240 359° North 467 537 35,000 878 Climbing FlightAware ADS-B
Fri 05:57:51 AM 20.7930 -66.0270 358° North 467 537 35,600 714 Climbing FlightAware ADS-B
Fri 05:58:33 AM 20.8840 -66.0290 359° North 468 539 36,000 276 Climbing FlightAware ADS-B
Fri 05:59:18 AM 20.9710 -66.0320 358° North 470 541 36,000  Level FlightAware ADS-B
Fri 05:59:52 AM 21.0340 -66.0340 358° North 470 541 36,000  Level FlightAware ADS-B
Fri 06:01:09 AM 21.1760 -66.0400 358° North 470 541 36,000  Level FlightAware ADS-B
Fri 06:01:45 AM 21.2420 -66.0420 358° North 470 541 36,000  Level FlightAware ADS-B
Fri 06:02:50 AM 21.4340 -66.0440 359° North 469 540 36,000  Level FlightAware ADS-B
Fri 06:03:26 AM 21.5000 -66.0470 358° North 469 540 36,000  Level FlightAware ADS-B
Fri 06:04:12 AM 21.6030 -66.0490 359° North 462 532 36,000  Level FlightAware ADS-B
Fri 06:04:50 AM 21.6720 -66.0520 358° North 462 532 36,000  Level FlightAware ADS-B
Fri 06:05:58 AM 21.7950 -66.0560 358° North 462 532 36,000  Level FlightAware ADS-B
Fri 06:06:39 AM 21.8700 -66.0590 358° North 462 532 36,000  Level FlightAware ADS-B
Fri 06:07:26 AM 21.9550 -66.0620 358° North 462 532 36,000  Level FlightAware ADS-B
Fri 06:08:02 AM 22.0200 -66.0650 358° North 462 532 36,000  Level FlightAware ADS-B
Fri 06:08:26 AM 22.0500 -66.0667 343° North 472 543 36,000  Level New York Oceanic (ODAPS)
Fri 06:08:52 AM 22.1110 -66.0680 358° North 462 532 36,000  Level FlightAware ADS-B
Fri 06:09:28 AM 22.1770 -66.0710 358° North 462 532 36,000  Level FlightAware ADS-B
Fri 06:10:36 AM 22.3000 -66.0750 358° North 462 532 36,000  Level FlightAware ADS-B
Fri 06:11:27 AM 22.3930 -66.0790 358° North 462 532 36,000  Level FlightAware ADS-B
Fri 06:12:08 AM 22.4670 -66.0820 358° North 462 532 36,000  Level FlightAware ADS-B
Fri 06:12:44 AM 22.5320 -66.0840 358° North 462 532 36,000  Level FlightAware ADS-B
Fri 06:13:32 AM 22.6200 -66.0880 343° North 462 532 36,000  Level FlightAware ADS-B
Fri 06:18:00 AM 23.1221 -66.2739 350° North  Level Estimated
Fri 06:18:43 AM 22.9167 -66.3500 349° North 460 529 36,000  Level New York Oceanic (ODAPS)
Fri 06:19:00 AM 23.2297 -66.3287 335° Northwest  Level FlightAware Approximate
Fri 06:20:00 AM 23.3373 -66.3835 335° Northwest  Level FlightAware Approximate
Fri 06:21:00 AM 23.4448 -66.4384 335° Northwest  Level FlightAware Approximate
Fri 06:22:00 AM 23.5560 -66.4784 349° North  Level FlightAware Approximate
Fri 06:23:00 AM 23.6726 -66.5027 349° North  Level FlightAware Approximate
Fri 06:24:00 AM 23.7893 -66.5272 349° North  Level FlightAware Approximate
Fri 06:25:00 AM 24.1657 -66.6100 349° North 460 529 36,000  Level FlightAware Transoceanic
Fri 06:26:00 AM 24.2906 -66.6363 349° North 460 529 36,000  Level FlightAware Transoceanic
Fri 06:27:00 AM 24.4154 -66.6626 349° North 460 529 36,000  Level FlightAware Transoceanic
Fri 06:28:00 AM 24.5403 -66.6890 349° North 460 529 36,000  Level FlightAware Transoceanic
Fri 06:29:00 AM 24.6652 -66.7154 349° North 460 529 36,000  Level FlightAware Transoceanic
Fri 06:30:00 AM 24.7901 -66.7419 349° North 460 529 36,000  Level FlightAware Transoceanic
Fri 06:31:00 AM 24.9149 -66.7685 349° North 460 529 36,000  Level FlightAware Transoceanic
Fri 06:32:00 AM 25.0398 -66.7951 349° North 460 529 36,000  Level FlightAware Transoceanic
Fri 06:33:00 AM 25.1646 -66.8217 349° North 460 529 36,000  Level FlightAware Transoceanic
Fri 06:34:00 AM 25.2894 -66.8484 349° North 460 529 36,000  Level FlightAware Transoceanic
Fri 06:35:00 AM 25.4143 -66.8752 349° North 460 529 36,000  Level FlightAware Transoceanic
Fri 06:36:00 AM 25.5391 -66.9020 349° North 460 529 36,000  Level FlightAware Transoceanic
Fri 06:37:00 AM 25.6639 -66.9289 349° North 460 529 36,000  Level FlightAware Transoceanic
Fri 06:38:00 AM 25.7888 -66.9558 349° North 460 529 36,000  Level FlightAware Transoceanic
Fri 06:39:00 AM 25.9136 -66.9828 349° North 460 529 36,000  Level FlightAware Transoceanic
Fri 06:40:00 AM 26.0384 -67.0098 349° North 460 529 36,000  Level FlightAware Transoceanic
Fri 06:41:00 AM 26.1632 -67.0369 349° North 460 529 36,000  Level FlightAware Transoceanic
Fri 06:42:00 AM 26.2880 -67.0641 349° North 460 529 36,000  Level FlightAware Transoceanic
Fri 06:43:00 AM 26.4128 -67.0913 349° North 460 529 36,000  Level FlightAware Transoceanic
Fri 06:44:00 AM 26.5376 -67.1186 349° North 460 529 36,000  Level FlightAware Transoceanic
Fri 06:45:00 AM 26.6624 -67.1459 349° North 460 529 36,000  Level FlightAware Transoceanic
Fri 06:46:00 AM 26.7872 -67.1733 349° North 460 529 36,000  Level FlightAware Transoceanic
Fri 06:47:00 AM 26.9119 -67.2008 349° North 460 529 36,000  Level FlightAware Transoceanic
Fri 06:48:00 AM 27.0367 -67.2283 349° North 460 529 36,000  Level FlightAware Transoceanic
Fri 06:49:00 AM 27.1615 -67.2558 349° North 460 529 36,000  Level FlightAware Transoceanic
Fri 06:50:00 AM 27.2862 -67.2835 349° North 460 529 36,000  Level FlightAware Transoceanic
Fri 06:50:17 AM 27.0833 -67.2500 349° North 451 519 36,000  Level New York Oceanic (ODAPS)
Fri 06:51:00 AM 27.4110 -67.3112 349° North 460 529 36,000  Level FlightAware Transoceanic
Fri 06:52:00 AM 27.5357 -67.3389 349° North 460 529 36,000  Level FlightAware Transoceanic
Fri 06:53:00 AM 27.6605 -67.3668 349° North 460 529 36,000  Level FlightAware Transoceanic
Fri 06:54:00 AM 27.7852 -67.3947 349° North 460 529 36,000  Level FlightAware Transoceanic
Fri 06:55:00 AM 27.9100 -67.4226 349° North 460 529 36,000  Level FlightAware Transoceanic
Fri 06:56:00 AM 27.9472 -67.4402 349° North 451 519 36,000  Level FlightAware Transoceanic
Fri 06:57:00 AM 28.0706 -67.4676 349° North 451 519 36,000  Level FlightAware Transoceanic
Fri 06:58:00 AM 28.1940 -67.4951 349° North 451 519 36,000  Level FlightAware Transoceanic
Fri 06:59:00 AM 28.3174 -67.5226 349° North 451 519 36,000  Level FlightAware Transoceanic
Fri 07:00:00 AM 28.4408 -67.5502 349° North 451 519 36,000  Level FlightAware Transoceanic
Fri 07:01:00 AM 28.5641 -67.5779 349° North 451 519 36,000  Level FlightAware Transoceanic
Fri 07:02:00 AM 28.6875 -67.6057 349° North 451 519 36,000  Level FlightAware Transoceanic
Fri 07:03:00 AM 28.8109 -67.6335 349° North 451 519 36,000  Level FlightAware Transoceanic
Fri 07:04:00 AM 28.9342 -67.6613 349° North 451 519 36,000  Level FlightAware Transoceanic
Fri 07:05:00 AM 29.0576 -67.6893 349° North 451 519 36,000  Level FlightAware Transoceanic
Fri 07:06:00 AM 29.1809 -67.7173 349° North 451 519 36,000  Level FlightAware Transoceanic
Fri 07:07:00 AM 29.3042 -67.7453 349° North 451 519 36,000  Level FlightAware Transoceanic
Fri 07:08:00 AM 29.4276 -67.7735 349° North 451 519 36,000  Level FlightAware Transoceanic
Fri 07:09:00 AM 29.5509 -67.8017 349° North 451 519 36,000  Level FlightAware Transoceanic
Fri 07:10:00 AM 29.6742 -67.8299 349° North 451 519 36,000  Level FlightAware Transoceanic
Fri 07:11:00 AM 29.7975 -67.8583 349° North 451 519 36,000  Level FlightAware Transoceanic
Fri 07:12:00 AM 29.9208 -67.8867 349° North 451 519 36,000  Level FlightAware Transoceanic
Fri 07:13:00 AM 30.0441 -67.9152 349° North 451 519 36,000  Level FlightAware Transoceanic
Fri 07:14:00 AM 30.1674 -67.9437 349° North 451 519 36,000  Level FlightAware Transoceanic
Fri 07:15:00 AM 30.2907 -67.9724 349° North 451 519 36,000  Level FlightAware Transoceanic
Fri 07:16:00 AM 30.4140 -68.0011 349° North 451 519 36,000  Level FlightAware Transoceanic
Fri 07:17:00 AM 30.5373 -68.0298 349° North 451 519 36,000  Level FlightAware Transoceanic
Fri 07:18:00 AM 30.6605 -68.0587 349° North 451 519 36,000  Level FlightAware Transoceanic
Fri 07:19:00 AM 30.7838 -68.0876 349° North 451 519 36,000  Level FlightAware Transoceanic
Fri 07:20:00 AM 30.9070 -68.1166 349° North 451 519 36,000  Level FlightAware Transoceanic
Fri 07:21:00 AM 31.0303 -68.1457 349° North 451 519 36,000  Level FlightAware Transoceanic
Fri 07:22:00 AM 31.1535 -68.1748 349° North 451 519 36,000  Level FlightAware Transoceanic
Fri 07:23:00 AM 31.2768 -68.2040 349° North 451 519 36,000  Level FlightAware Transoceanic
Fri 07:24:00 AM 31.4000 -68.2333 348° North 451 519 36,000  Level FlightAware Transoceanic
Fri 07:25:00 AM 31.5193 -68.2622 348° North 451 519 36,000  Level FlightAware Transoceanic
Fri 07:26:00 AM 31.6386 -68.2911 348° North 451 519 36,000  Level FlightAware Transoceanic
Fri 07:27:00 AM 31.7579 -68.3201 348° North 451 519 36,000  Level FlightAware Transoceanic
Fri 07:27:43 AM 31.4000 -68.2333 348° North 437 503 36,000  Level New York Oceanic (ODAPS)
Fri 07:28:00 AM 31.8772 -68.3491 348° North 451 519 36,000  Level FlightAware Transoceanic
Fri 07:29:00 AM 31.9965 -68.3783 348° North 451 519 36,000  Level FlightAware Transoceanic
Fri 07:30:00 AM 32.1157 -68.4075 348° North 451 519 36,000  Level FlightAware Transoceanic
Fri 07:31:00 AM 32.2350 -68.4368 348° North 451 519 36,000  Level FlightAware Transoceanic
Fri 07:32:00 AM 32.3543 -68.4661 348° North 451 519 36,000  Level FlightAware Transoceanic
Fri 07:33:00 AM 32.2350 -68.4368 348° North 437 503 36,000  Level FlightAware Transoceanic
Fri 07:34:00 AM 32.3543 -68.4661 348° North 437 503 36,000  Level FlightAware Transoceanic
Fri 07:35:00 AM 32.4735 -68.4956 348° North 437 503 36,000  Level FlightAware Transoceanic
Fri 07:36:00 AM 32.5928 -68.5251 348° North 437 503 36,000  Level FlightAware Transoceanic
Fri 07:37:00 AM 32.7120 -68.5547 348° North 437 503 36,000  Level FlightAware Transoceanic
Fri 07:38:00 AM 32.8312 -68.5844 348° North 437 503 36,000  Level FlightAware Transoceanic
Fri 07:39:00 AM 32.9505 -68.6141 348° North 437 503 36,000  Level FlightAware Transoceanic
Fri 07:40:00 AM 33.0697 -68.6440 348° North 437 503 36,000  Level FlightAware Transoceanic
Fri 07:41:00 AM 33.1889 -68.6739 348° North 437 503 36,000  Level FlightAware Transoceanic
Fri 07:42:00 AM 33.3081 -68.7039 348° North 437 503 36,000  Level FlightAware Transoceanic
Fri 07:43:00 AM 33.4273 -68.7340 348° North 437 503 36,000  Level FlightAware Transoceanic
Fri 07:44:00 AM 33.5465 -68.7641 348° North 437 503 36,000  Level FlightAware Transoceanic
Fri 07:45:00 AM 33.6656 -68.7944 348° North 437 503 36,000  Level FlightAware Transoceanic
Fri 07:46:00 AM 33.7848 -68.8247 348° North 437 503 36,000  Level FlightAware Transoceanic
Fri 07:47:00 AM 33.9040 -68.8551 348° North 437 503 36,000  Level FlightAware Transoceanic
Fri 07:48:00 AM 34.0232 -68.8857 348° North 437 503 36,000  Level FlightAware Transoceanic
Fri 07:49:00 AM 34.1423 -68.9162 348° North 437 503 36,000  Level FlightAware Transoceanic
Fri 07:50:00 AM 34.2615 -68.9469 348° North 437 503 36,000  Level FlightAware Transoceanic
Fri 07:51:00 AM 34.3806 -68.9777 348° North 437 503 36,000  Level FlightAware Transoceanic
Fri 07:52:00 AM 34.4997 -69.0085 348° North 437 503 36,000  Level FlightAware Transoceanic
Fri 07:53:00 AM 34.6188 -69.0395 348° North 437 503 36,000  Level FlightAware Transoceanic
Fri 07:54:00 AM 34.7379 -69.0705 348° North 437 503 36,000  Level FlightAware Transoceanic
Fri 07:55:00 AM 34.8571 -69.1016 348° North 437 503 36,000  Level FlightAware Transoceanic
Fri 07:56:00 AM 34.9762 -69.1328 348° North 437 503 36,000  Level FlightAware Transoceanic
Fri 07:57:00 AM 35.0952 -69.1641 348° North 437 503 36,000  Level FlightAware Transoceanic
Fri 07:58:00 AM 35.2143 -69.1955 348° North 437 503 36,000  Level FlightAware Transoceanic
Fri 07:59:00 AM 35.3334 -69.2270 348° North 437 503 36,000  Level FlightAware Transoceanic
Fri 08:00:00 AM 35.4524 -69.2586 348° North 437 503 36,000  Level FlightAware Transoceanic
Fri 08:01:00 AM 35.5715 -69.2902 348° North 437 503 36,000  Level FlightAware Transoceanic
Fri 08:02:00 AM 35.6906 -69.3220 348° North 437 503 36,000  Level FlightAware Transoceanic
Fri 08:03:00 AM 35.8096 -69.3539 348° North 437 503 36,000  Level FlightAware Transoceanic
Fri 08:04:00 AM 35.9286 -69.3858 348° North 437 503 36,000  Level FlightAware Transoceanic
Fri 08:05:00 AM 36.0476 -69.4178 348° North 437 503 36,000  Level FlightAware Transoceanic
Fri 08:06:00 AM 36.1667 -69.4500 322° Northwest 437 503 36,000  Level FlightAware Transoceanic
Fri 08:06:55 AM 36.1667 -69.4500 322° Northwest 418 481 36,000  Level New York Oceanic (ODAPS)
Fri 08:07:00 AM 36.2641 -69.5440 322° Northwest 437 503 36,000  Level FlightAware Transoceanic
Fri 08:08:00 AM 36.3615 -69.6383 322° Northwest 437 503 36,000  Level FlightAware Transoceanic
Fri 08:09:00 AM 36.4588 -69.7328 322° Northwest 437 503 36,000  Level FlightAware Transoceanic
Fri 08:10:00 AM 36.5560 -69.8275 322° Northwest 437 503 36,000  Level FlightAware Transoceanic
Fri 08:11:00 AM 36.6531 -69.9225 322° Northwest 437 503 36,000  Level FlightAware Transoceanic
Fri 08:12:00 AM 36.7502 -70.0177 322° Northwest 437 503 36,000  Level FlightAware Transoceanic
Fri 08:13:00 AM 36.8073 -70.0738 322° Northwest 418 481 36,000  Level FlightAware Transoceanic
Fri 08:14:00 AM 36.8985 -70.1638 322° Northwest 418 481 36,000  Level FlightAware Transoceanic
Fri 08:15:00 AM 36.9897 -70.2540 322° Northwest 418 481 36,000  Level FlightAware Transoceanic
Fri 08:16:00 AM 37.0808 -70.3444 322° Northwest 418 481 36,000  Level FlightAware Transoceanic
Fri 08:17:00 AM 37.1719 -70.4350 322° Northwest 418 481 36,000  Level FlightAware Transoceanic
Fri 08:18:00 AM 37.2628 -70.5258 321° Northwest 418 481 36,000  Level FlightAware Transoceanic
Fri 08:19:00 AM 37.3537 -70.6169 321° Northwest 418 481 36,000  Level FlightAware Transoceanic
Fri 08:20:00 AM 37.4446 -70.7082 321° Northwest 418 481 36,000  Level FlightAware Transoceanic
Fri 08:21:00 AM 37.5354 -70.7997 321° Northwest 418 481 36,000  Level FlightAware Transoceanic
Fri 08:22:00 AM 37.6260 -70.8914 321° Northwest 418 481 36,000  Level FlightAware Transoceanic
Fri 08:22:37 AM 37.6769 -70.9269 330° Northwest 447 514 36,000  Level New York Center
Fri 08:23:00 AM 37.7167 -70.9833 330° Northwest 418 481 36,000  Level FlightAware Transoceanic
Fri 08:23:38 AM 37.7603 -71.0033 324° Northwest 426 490 36,000  Level New York Center
Fri 08:24:00 AM 37.8182 -71.0582 330° Northwest 418 481 36,000  Level FlightAware Transoceanic
Fri 08:24:36 AM 37.8622 -71.0775 330° Northwest 421 484 36,000  Level New York Center
Fri 08:25:00 AM 37.9196 -71.1332 330° Northwest 418 481 36,000  Level FlightAware Transoceanic
Fri 08:25:37 AM 37.9581 -71.1647 324° Northwest 421 484 36,000  Level New York Center
Fri 08:26:00 AM 38.0210 -71.2084 330° Northwest 418 481 36,000  Level FlightAware Transoceanic
Fri 08:31:45 AM 38.5988 -71.6201 324° Northwest 427 491 36,000  Level FlightAware ADS-B
Fri 08:32:34 AM 38.6837 -71.6841 330° Northwest 428 493 36,000 -667 Level FlightAware ADS-B
Fri 08:35:15 AM 38.8820 -71.9930 310° West 33,900 -828 Descending FlightAware ADS-B
Fri 08:35:57 AM 38.9385 -72.0949 306° West 444 511 33,200 -908 Descending FlightAware ADS-B
Fri 08:37:14 AM 39.0210 -72.2460 305° West 439 505 32,100 -624 Descending FlightAware ADS-B
Fri 08:38:02 AM 39.0730 -72.3440 304° West 446 513 31,900 -2,163 Descending FlightAware ADS-B
Fri 08:38:40 AM 39.1291 -72.4455 305° West 442 509 29,000 -3,278 Descending FlightAware ADS-B
Fri 08:39:39 AM 39.1950 -72.5670 305° West 424 488 26,600 -1,740 Descending FlightAware ADS-B
Fri 08:40:51 AM 39.2610 -72.6930 304° West 408 470 25,200 -1,385 Descending FlightAware ADS-B
Fri 08:42:15 AM 39.3460 -72.8510 305° West 395 455 23,000 -2,766 Descending FlightAware ADS-B
Fri 08:43:12 AM 39.4154 -72.9795 305° West 373 429 18,700 -3,640 Descending FlightAware ADS-B
Fri 08:43:44 AM 39.4457 -73.0365 305° West 362 417 17,600 -2,138 Descending FlightAware ADS-B
Fri 08:44:39 AM 39.4965 -73.1325 304° West 353 406 15,600 -2,463 Descending FlightAware ADS-B
Fri 08:45:19 AM 39.5344 -73.2041 304° West 358 412 13,700 -2,500 Descending FlightAware ADS-B
Fri 08:45:51 AM 39.5630 -73.2570 305° West 353 406 12,600 -2,278 Descending FlightAware ADS-B
Fri 08:46:38 AM 39.6070 -73.3410 304° West 346 398 10,700 -2,118 Descending FlightAware ADS-B
Fri 08:47:16 AM 39.6350 -73.3950 304° West 338 389 9,600 -723 Descending FlightAware ADS-B
Fri 08:48:01 AM 39.6730 -73.4690 304° West 307 353 9,700  Climbing FlightAware ADS-B
Fri 08:48:20 AM 39.6880 -73.4960 306° West 273 314 9,600 -130 Descending FlightAware ADS-B
Fri 08:48:47 AM 39.7070 -73.5330 304° West 271 312 9,600  Level FlightAware ADS-B
Fri 08:49:12 AM 39.7250 -73.5670 305° West 272 313 9,600  Level FlightAware ADS-B
Fri 08:49:41 AM 39.7460 -73.6060 305° West 272 313 9,600  Level FlightAware ADS-B
Fri 08:50:22 AM 39.7740 -73.6600 304° West 268 308 9,600  Level FlightAware ADS-B
Fri 08:50:50 AM 39.7940 -73.7000 303° West 267 307 9,600  Level FlightAware ADS-B
Fri 08:51:07 AM 39.8050 -73.7210 304° West 267 307 9,600 130 Level FlightAware ADS-B
Fri 08:51:36 AM 39.8260 -73.7610 304° West 267 307 9,700  Climbing FlightAware ADS-B
Fri 08:51:47 AM 39.8335 -73.7756 304° West 265 305 9,600 -1,200 Descending FlightAware ADS-B
Fri 08:52:11 AM 39.8500 -73.8075 304° West 264 304 9,000 -1,385 Descending FlightAware ADS-B
Fri 08:52:26 AM 39.8603 -73.8273 304° West 263 303 8,700 -1,355 Descending FlightAware ADS-B
Fri 08:52:42 AM 39.8712 -73.8486 304° West 269 310 8,300 -1,500 Descending FlightAware ADS-B
Fri 08:52:58 AM 39.8821 -73.8697 304° West 273 314 7,900 -1,309 Descending FlightAware ADS-B
Fri 08:53:37 AM 39.9101 -73.9234 304° West 269 310 7,100 -1,309 Descending FlightAware ADS-B
Fri 08:53:53 AM 39.9207 -73.9437 304° West 271 312 6,700 -1,355 Descending FlightAware ADS-B
Fri 08:54:08 AM 39.9316 -73.9653 303° West 272 313 6,400 -1,161 Descending FlightAware ADS-B
Fri 08:54:24 AM 39.9422 -73.9862 303° West 272 313 6,100 -1,313 Descending FlightAware ADS-B
Fri 08:54:40 AM 39.9539 -74.0089 304° West 272 313 5,700 -500 Descending FlightAware ADS-B
Fri 08:55:24 AM 39.9840 -74.0670 304° West 267 307 5,600  Descending FlightAware ADS-B
Fri 08:55:48 AM 40.0010 -74.0990 305° West 265 305 5,700 120 Climbing FlightAware ADS-B
Fri 08:56:14 AM 40.0190 -74.1340 304° West 265 305 5,700  Level FlightAware ADS-B
Fri 08:56:30 AM 40.0297 -74.1561 302° West 266 306 5,700  Level FlightAware ADS-B
Fri 08:56:49 AM 40.0425 -74.1811 304° West 265 305 5,700  Level FlightAware ADS-B
Fri 08:57:07 AM 40.0548 -74.2053 304° West 266 306 5,700  Level FlightAware ADS-B
Fri 08:57:25 AM 40.0671 -74.2294 304° West 267 307 5,700  Level FlightAware ADS-B
Fri 08:57:41 AM 40.0783 -74.2512 304° West 267 307 5,700  Level FlightAware ADS-B
Fri 08:57:58 AM 40.0893 -74.2729 304° West 267 307 5,700 -167 Level FlightAware ADS-B
Fri 08:58:17 AM 40.1027 -74.2991 304° West 267 307 5,600  Descending FlightAware ADS-B
Fri 08:58:33 AM 40.1134 -74.3200 304° West 267 307 5,700 188 Climbing FlightAware ADS-B
Fri 08:58:49 AM 40.1242 -74.3412 304° West 267 307 5,700  Level FlightAware ADS-B
Fri 08:59:04 AM 40.1345 -74.3615 304° West 268 308 5,700  Level FlightAware ADS-B
Fri 08:59:20 AM 40.1458 -74.3837 304° West 268 308 5,700  Level FlightAware ADS-B
Fri 08:59:35 AM 40.1562 -74.4041 304° West 268 308 5,700  Level FlightAware ADS-B
Fri 08:59:53 AM 40.1684 -74.4280 304° West 270 311 5,700  Level FlightAware ADS-B
Fri 09:00:15 AM 40.1840 -74.4588 304° West 271 312 5,700  Level FlightAware ADS-B
Fri 09:00:32 AM 40.1956 -74.4814 304° West 271 312 5,700  Level FlightAware ADS-B
Fri 09:00:39 AM 40.2007 -74.4899 308° West 272 313 5,700  Level FlightAware ADS-B
Fri 09:00:44 AM 40.2057 -74.4970 313° West 271 312 5,700  Level FlightAware ADS-B
Fri 09:00:51 AM 40.2117 -74.5034 321° Northwest 270 311 5,700  Level FlightAware ADS-B
Fri 09:00:58 AM 40.2195 -74.5092 330° Northwest 270 311 5,700 -500 Level FlightAware ADS-B
Fri 09:01:03 AM 40.2251 -74.5126 335° Northwest 270 311 5,600 -316 Descending FlightAware ADS-B
Fri 09:01:17 AM 40.2419 -74.5219 337° Northwest 270 311 5,600 207 Level FlightAware ADS-B
Fri 09:01:32 AM 40.2593 -74.5315 337° Northwest 270 311 5,700 188 Climbing FlightAware ADS-B
Fri 09:01:49 AM 40.2781 -74.5419 337° Northwest 271 312 5,700  Level FlightAware ADS-B
Fri 09:02:05 AM 40.2963 -74.5520 337° Northwest 271 312 5,700  Level FlightAware ADS-B
Fri 09:02:22 AM 40.3165 -74.5632 337° Northwest 270 311 5,700  Level FlightAware ADS-B
Fri 09:02:37 AM 40.3338 -74.5728 337° Northwest 271 312 5,700  Level FlightAware ADS-B
Fri 09:02:55 AM 40.3544 -74.5842 337° Northwest 269 310 5,700  Level FlightAware ADS-B
Fri 09:03:05 AM 40.3661 -74.5894 341° North 268 308 5,700  Level FlightAware ADS-B
Fri 09:03:09 AM 40.3706 -74.5904 350° North 268 308 5,700  Level FlightAware ADS-B
Fri 09:03:13 AM 40.3755 -74.5906 358° North 268 308 5,700 -750 Level FlightAware ADS-B
Fri 09:03:17 AM 40.3804 -74.5903 North 268 308 5,600 -316 Descending FlightAware ADS-B
Fri 09:03:32 AM 40.3991 -74.5874 North 270 311 5,600 200 Level FlightAware ADS-B
Fri 09:03:47 AM 40.4179 -74.5844 North 269 310 5,700 188 Climbing FlightAware ADS-B
Fri 09:04:04 AM 40.4390 -74.5809 North 269 310 5,700  Level FlightAware ADS-B
Fri 09:04:20 AM 40.4593 -74.5777 North 270 311 5,700  Level FlightAware ADS-B
Fri 09:04:36 AM 40.4783 -74.5746 North 270 311 5,700  Level FlightAware ADS-B
Fri 09:04:51 AM 40.4970 -74.5715 North 271 312 5,700  Level FlightAware ADS-B
Fri 09:05:07 AM 40.5178 -74.5680 North 272 313 5,700  Level FlightAware ADS-B
Fri 09:05:22 AM 40.5369 -74.5648 North 273 314 5,700  Level FlightAware ADS-B
Fri 09:05:41 AM 40.5598 -74.5610 North 274 315 5,700  Level FlightAware ADS-B
Fri 09:05:58 AM 40.5820 -74.5573 North 274 315 5,700  Level FlightAware ADS-B
Fri 09:06:15 AM 40.6032 -74.5538 North 274 315 5,700  Level FlightAware ADS-B
Fri 09:06:31 AM 40.6237 -74.5505 North 274 315 5,700 -115 Level FlightAware ADS-B
Fri 09:07:07 AM 40.6670 -74.5430 North 275 316 5,600 -81 Descending FlightAware ADS-B
Fri 09:07:45 AM 40.7165 -74.5351 North 274 315 5,600 -295 Level FlightAware ADS-B
Fri 09:08:08 AM 40.7455 -74.5301 North 275 316 5,300 -769 Descending FlightAware ADS-B
Fri 09:08:24 AM 40.7653 -74.5268 North 275 316 5,100 -625 Descending FlightAware ADS-B
Fri 09:08:56 AM 40.8050 -74.5200 North 271 312 4,800 -436 Descending FlightAware ADS-B
Fri 09:09:19 AM 40.8310 -74.5110 15° North 272 313 4,700 -375 Descending FlightAware ADS-B
Fri 09:09:28 AM 40.8410 -74.4990 42° Northeast 275 316 4,600  Descending FlightAware ADS-B
Fri 09:09:55 AM 40.8630 -74.4680 47° Northeast 273 314 4,700 118 Climbing FlightAware ADS-B
Fri 09:10:19 AM 40.8843 -74.4338 51° Northeast 273 314 4,700 -150 Level FlightAware ADS-B
Fri 09:10:35 AM 40.8949 -74.4123 57° Northeast 273 314 4,600  Descending FlightAware ADS-B
Fri 09:11:07 AM 40.9110 -74.3790 57° Northeast 272 313 4,700 98 Climbing FlightAware ADS-B
Fri 09:11:36 AM 40.9250 -74.3220 72° East 271 312 4,700 -136 Level FlightAware ADS-B
Fri 09:11:51 AM 40.9300 -74.2970 75° East 271 312 4,600 -194 Descending FlightAware ADS-B
Fri 09:12:07 AM 40.9349 -74.2708 76° East 272 313 4,600 -857 Level FlightAware ADS-B
Fri 09:12:26 AM 40.9407 -74.2397 76° East 273 314 4,100 -1,600 Descending FlightAware ADS-B
Fri 09:12:37 AM 40.9432 -74.2225 79° East 274 315 3,800 -1,200 Descending FlightAware ADS-B
Fri 09:12:46 AM 40.9431 -74.2072 90° East 271 312 3,700 -250 Descending FlightAware ADS-B
Fri 09:13:25 AM 40.9190 -74.1589 123° Southeast 269 310 3,600 -120 Descending FlightAware ADS-B
Fri 09:13:36 AM 40.9106 -74.1474 134° Southeast 234 269 3,600 -462 Level FlightAware ADS-B
Fri 09:13:51 AM 40.8992 -74.1318 134° Southeast 236 272 3,400 -774 Descending FlightAware ADS-B
Fri 09:14:07 AM 40.8877 -74.1159 134° Southeast 233 268 3,200 -818 Descending FlightAware ADS-B
Fri 09:14:13 AM 40.8826 -74.1093 136° Southeast 230 265 3,100 -600 Descending FlightAware ADS-B
Fri 09:14:17 AM 40.8794 -74.1060 142° Southeast 226 260 3,100 -750 Level FlightAware ADS-B
Fri 09:14:21 AM 40.8757 -74.1029 148° Southeast 223 257 3,000 -947 Descending FlightAware ADS-B
Fri 09:14:36 AM 40.8618 -74.0938 154° Southeast 219 252 2,800 -909 Descending FlightAware ADS-B
Fri 09:14:54 AM 40.8463 -74.0838 154° Southeast 215 247 2,500 -923 Descending FlightAware ADS-B
Fri 09:15:02 AM 40.8393 -74.0796 156° South 208 239 2,400 -1,000 Descending FlightAware ADS-B
Fri 09:15:06 AM 40.8356 -74.0781 163° South 203 234 2,300 -1,000 Descending FlightAware ADS-B
Fri 09:15:14 AM 40.8284 -74.0781 180° South 193 222 2,200 -545 Descending FlightAware ADS-B
Fri 09:15:17 AM 40.8258 -74.0790 195° South 189 217 2,200 -750 Level FlightAware ADS-B
Fri 09:15:22 AM 40.8216 -74.0815 204° Southwest 187 215 2,100 -400 Descending FlightAware ADS-B
Fri 09:15:32 AM 40.8143 -74.0868 209° Southwest 184 212 2,100 -545 Level FlightAware ADS-B
Fri 09:15:55 AM 40.7968 -74.0984 207° Southwest 183 211 1,800 -947 Descending FlightAware ADS-B
Fri 09:16:10 AM 40.7852 -74.1059 206° Southwest 181 208 1,500 -1,000 Descending FlightAware ADS-B
Fri 09:16:25 AM 40.7737 -74.1130 205° Southwest 180 207 1,300 -800 Descending FlightAware ADS-B
Fri 09:16:40 AM 40.7627 -74.1199 205° Southwest 173 199 1,100 -1,000 Descending FlightAware ADS-B
Fri 09:16:55 AM 40.7521 -74.1267 206° Southwest 162 186 800 -923 Descending FlightAware ADS-B
Fri 09:17:06 AM 40.7454 -74.1312 207° Southwest 155 178 700 -750 Descending FlightAware ADS-B
Fri 09:17:35 AM 40.7276 -74.1425 206° Southwest 143 165 300 -828 Descending FlightAware ADS-B

Login

Don't have an account? Register now (free) for customized features, flight alerts, and more!